Time;durP1;ratioP1;P1;durP2;ratioP2;P2;SDS_P1;SDS_P2;PMS_P1;PMS_P2;Temp;Humidity;BMP_temperature;BMP_pressure;BME280_temperature;BME280_humidity;BME280_pressure;Samples;Min_cycle;Max_cycle;Signal;HPM_P1;HPM_P2
2023/01/17 00:10:12;;;;;;;0.20;0.20;;;;;;;3.08;100.00;94878.28;15287965;19;20011;-85
2023/01/17 00:15:40;;;;;;;0.20;0.20;;;;;;;3.04;100.00;94902.81;15291513;19;20512;-82
2023/01/17 01:34:20;;;;;;;0.13;0.13;;;;;;;3.24;100.00;94990.59;15281853;19;20014;-81
2023/01/17 01:39:45;;;;;;;1.58;0.10;;;;;;;3.18;100.00;95000.19;15282795;19;20751;-77
2023/01/17 01:45:23;;;;;;;0.10;0.10;;;;;;;3.17;100.00;95029.66;15288968;19;20057;-77
2023/01/17 01:50:53;;;;;;;0.15;0.15;;;;;;;3.11;100.00;95006.53;15290817;19;20014;-78
2023/01/17 01:56:22;;;;;;;0.13;0.10;;;;;;;3.06;100.00;95023.91;15289600;19;20025;-78
2023/01/17 02:01:48;;;;;;;0.20;0.20;;;;;;;3.02;100.00;95033.28;15331303;19;20022;-76
2023/01/17 02:07:21;;;;;;;0.10;0.10;;;;;;;2.98;100.00;95039.19;15297745;19;20014;-79
2023/01/17 02:12:47;;;;;;;0.20;0.20;;;;;;;2.95;100.00;95042.25;15273703;19;20006;-81
2023/01/17 02:18:24;;;;;;;0.10;0.10;;;;;;;2.93;100.00;95034.47;15278033;19;20015;-78
2023/01/17 02:24:26;;;;;;;0.17;0.17;;;;;;;2.92;100.00;95038.16;15276010;19;20010;-79
2023/01/17 02:30:26;;;;;;;0.10;0.10;;;;;;;2.88;100.00;95040.38;15289891;19;20059;-78
2023/01/17 02:36:07;;;;;;;0.10;0.10;;;;;;;2.85;100.00;95037.31;15295845;19;20031;-79
2023/01/17 02:41:38;;;;;;;0.20;0.15;;;;;;;2.83;100.00;95049.97;15290047;19;20343;-77
2023/01/17 02:47:04;;;;;;;0.13;0.13;;;;;;;2.81;100.00;95067.94;15290415;19;20035;-78
2023/01/17 02:52:58;;;;;;;0.20;0.20;;;;;;;2.77;100.00;95078.94;15289573;19;20715;-81
2023/01/17 02:58:54;;;;;;;0.30;0.20;;;;;;;2.70;100.00;95087.94;15289893;19;20908;-79
2023/01/17 03:04:23;;;;;;;0.20;0.20;;;;;;;2.64;100.00;95102.81;15282674;19;20350;-80
2023/01/17 03:09:56;;;;;;;0.30;0.30;;;;;;;2.64;100.00;95094.84;15295407;19;20019;-81
2023/01/17 03:15:24;;;;;;;0.20;0.20;;;;;;;2.64;100.00;95100.16;15289212;19;20014;-80
2023/01/17 03:20:49;;;;;;;0.22;0.22;;;;;;;2.65;100.00;95106.28;15288987;19;20017;-80
2023/01/17 03:26:18;;;;;;;0.20;0.20;;;;;;;2.59;100.00;95107.88;15285064;19;20020;-79
2023/01/17 03:31:45;;;;;;;0.20;0.20;;;;;;;2.57;100.00;95128.50;15276393;19;20006;-78
2023/01/17 03:37:09;;;;;;;0.32;0.32;;;;;;;2.55;100.00;95133.16;15284790;19;20070;-79
2023/01/17 03:42:37;;;;;;;0.40;0.40;;;;;;;2.46;100.00;95133.31;15282936;19;20053;-80
2023/01/17 03:48:02;;;;;;;0.40;0.40;;;;;;;2.38;100.00;95144.09;15278307;19;20015;-81
2023/01/17 03:53:27;;;;;;;0.95;0.50;;;;;;;2.35;100.00;95167.56;15283357;19;20685;-79
2023/01/17 03:59:02;;;;;;;0.47;0.43;;;;;;;2.26;100.00;95172.97;15282226;19;20014;-79
2023/01/17 04:04:30;;;;;;;0.40;0.40;;;;;;;2.26;100.00;95175.63;15277754;19;20094;-79
2023/01/17 04:09:55;;;;;;;0.52;0.47;;;;;;;2.26;100.00;95188.09;15287358;19;20010;-80
2023/01/17 04:15:22;;;;;;;0.50;0.50;;;;;;;2.28;100.00;95180.78;15283660;19;20036;-82
2023/01/17 04:20:49;;;;;;;0.50;0.50;;;;;;;2.31;100.00;95197.16;15280672;19;20018;-79
2023/01/17 04:26:15;;;;;;;0.73;0.60;;;;;;;2.34;100.00;95198.59;15287768;19;20488;-81
2023/01/17 04:31:42;;;;;;;0.68;0.50;;;;;;;2.36;100.00;95203.72;15299103;19;20010;-81
2023/01/17 04:37:07;;;;;;;0.60;0.60;;;;;;;2.34;100.00;95211.88;15294169;19;20018;-81
2023/01/17 04:42:31;;;;;;;1.05;0.73;;;;;;;2.34;100.00;95217.19;15289937;19;20022;-84
2023/01/17 04:48:04;;;;;;;0.95;0.57;;;;;;;2.34;100.00;95217.19;15294311;19;20046;-84
2023/01/17 04:53:29;;;;;;;1.38;0.70;;;;;;;2.30;100.00;95211.44;15274423;19;20042;-81
2023/01/17 04:59:00;;;;;;;0.50;0.50;;;;;;;2.27;100.00;95209.16;15280060;19;20013;-81
2023/01/17 05:04:27;;;;;;;0.80;0.77;;;;;;;2.21;100.00;95228.50;15272453;19;20019;-77
2023/01/17 05:09:52;;;;;;;1.50;0.70;;;;;;;2.13;100.00;95242.72;15270164;19;20036;-76
2023/01/17 05:15:16;;;;;;;0.98;0.60;;;;;;;2.11;100.00;95250.03;15270343;19;20501;-78
2023/01/17 05:20:46;;;;;;;0.50;0.50;;;;;;;2.03;100.00;95251.97;15274356;19;20034;-77
2023/01/17 05:26:11;;;;;;;1.15;0.60;;;;;;;2.09;100.00;95261.88;15268759;19;20078;-77
2023/01/17 05:31:37;;;;;;;0.95;0.70;;;;;;;2.10;100.00;95272.28;15272119;19;20010;-77
2023/01/17 05:37:05;;;;;;;1.48;0.90;;;;;;;2.12;100.00;95277.41;15267811;19;20025;-77
2023/01/17 05:42:32;;;;;;;0.65;0.60;;;;;;;2.14;100.00;95281.53;15262581;19;20044;-76
2023/01/17 05:47:58;;;;;;;0.65;0.65;;;;;;;2.21;100.00;95281.63;15274534;19;20007;-76
2023/01/17 05:53:26;;;;;;;0.85;0.70;;;;;;;2.21;100.00;95292.25;15272092;19;20019;-76
2023/01/17 05:58:58;;;;;;;0.88;0.68;;;;;;;2.22;100.00;95298.38;15297740;19;20035;-75
2023/01/17 06:04:23;;;;;;;1.73;0.70;;;;;;;2.19;100.00;95304.88;15307804;19;20030;-75
2023/01/17 06:09:51;;;;;;;0.90;0.60;;;;;;;2.18;100.00;95305.03;15289136;19;20037;-76
2023/01/17 06:15:17;;;;;;;1.40;0.73;;;;;;;2.13;100.00;95335.66;15279781;19;20025;-76
2023/01/17 06:20:42;;;;;;;1.40;0.93;;;;;;;2.11;100.00;95340.31;15286560;19;20089;-76
2023/01/17 06:26:09;;;;;;;1.02;0.73;;;;;;;2.11;100.00;95352.78;15283197;19;20485;-77
2023/01/17 06:31:34;;;;;;;0.90;0.60;;;;;;;2.11;100.00;95355.44;15277189;19;20404;-76
2023/01/17 06:36:59;;;;;;;43.60;4.57;;;;;;;2.10;100.00;95367.88;15302381;19;20039;-78
2023/01/17 06:42:27;;;;;;;17.17;1.90;;;;;;;2.08;100.00;95372.53;15293954;19;20011;-79
2023/01/17 06:47:55;;;;;;;2.42;0.80;;;;;;;2.09;100.00;95379.50;15301638;19;20035;-80
2023/01/17 06:53:27;;;;;;;0.63;0.50;;;;;;;2.11;100.00;95385.47;15308475;19;20485;-80
2023/01/17 06:59:02;;;;;;;1.02;0.50;;;;;;;2.06;100.00;95384.38;15306619;19;20011;-80
2023/01/17 07:04:28;;;;;;;0.60;0.60;;;;;;;1.98;100.00;95394.09;15297159;19;20441;-79
2023/01/17 07:09:53;;;;;;;0.80;0.68;;;;;;;1.89;100.00;95394.34;15307763;19;20021;-79
2023/01/17 07:15:20;;;;;;;0.50;0.50;;;;;;;1.73;100.00;95396.13;15308475;19;20074;-79
2023/01/17 07:20:46;;;;;;;1.10;0.65;;;;;;;1.66;100.00;95408.50;15287940;19;20019;-80
2023/01/17 07:26:10;;;;;;;0.82;0.50;;;;;;;1.62;100.00;95409.84;15293801;19;20601;-80
2023/01/17 07:31:39;;;;;;;1.38;0.90;;;;;;;1.64;100.00;95407.84;15299141;19;20615;-80
2023/01/17 07:37:04;;;;;;;2.35;0.50;;;;;;;1.62;100.00;95404.53;15299477;19;20077;-80
2023/01/17 07:42:33;;;;;;;1.02;0.60;;;;;;;1.62;100.00;95404.53;15291087;19;20481;-80
2023/01/17 07:48:01;;;;;;;0.63;0.50;;;;;;;1.48;100.00;95424.72;15310289;19;20018;-80
2023/01/17 07:53:26;;;;;;;0.40;0.40;;;;;;;1.47;100.00;95429.19;15305477;19;20021;-81
2023/01/17 07:58:50;;;;;;;1.25;0.60;;;;;;;1.49;100.00;95429.84;15315897;19;20017;-81
2023/01/17 08:04:18;;;;;;;3.15;0.50;;;;;;;1.53;100.00;95435.63;15306895;19;20378;-80
2023/01/17 08:09:42;;;;;;;0.45;0.45;;;;;;;1.45;100.00;95433.88;15304501;19;20358;-82
2023/01/17 08:15:07;;;;;;;0.55;0.55;;;;;;;1.34;100.00;95444.91;15308296;19;20018;-81
2023/01/17 08:20:35;;;;;;;1.20;0.57;;;;;;;1.38;100.00;95446.19;15308037;19;20041;-81
2023/01/17 08:26:08;;;;;;;3.85;0.55;;;;;;;1.43;100.00;95454.44;15298119;19;20686;-80
2023/01/17 08:31:35;;;;;;;0.80;0.60;;;;;;;1.56;100.00;95458.34;15285851;19;20029;-78
2023/01/17 08:37:04;;;;;;;0.73;0.43;;;;;;;1.70;100.00;95481.44;15281691;19;20086;-78
2023/01/17 08:42:36;;;;;;;0.90;0.50;;;;;;;1.80;100.00;95476.72;15274320;19;20014;-77
2023/01/17 08:48:01;;;;;;;0.88;0.60;;;;;;;1.84;100.00;95483.28;15285403;19;20017;-78
2023/01/17 08:53:28;;;;;;;0.40;0.40;;;;;;;1.84;100.00;95487.78;15292459;19;20018;-78
2023/01/17 08:58:53;;;;;;;0.60;0.50;;;;;;;1.91;100.00;95504.63;15274499;19;20488;-79
2023/01/17 09:04:18;;;;;;;0.43;0.43;;;;;;;1.96;100.00;95498.78;15276311;19;20018;-78
2023/01/17 09:09:47;;;;;;;0.68;0.40;;;;;;;2.02;100.00;95505.19;15281159;19;20023;-79
2023/01/17 09:15:16;;;;;;;0.70;0.40;;;;;;;2.12;100.00;95498.66;15279437;19;20029;-79
2023/01/17 09:20:41;;;;;;;0.50;0.40;;;;;;;2.13;100.00;95532.16;15277283;19;20090;-77
2023/01/17 09:26:21;;;;;;;1.45;0.60;;;;;;;2.06;100.00;95517.94;15282377;19;20022;-78
2023/01/17 09:31:46;;;;;;;1.55;0.60;;;;;;;2.05;100.00;95521.63;15278188;19;20029;-77
2023/01/17 09:37:11;;;;;;;0.80;0.50;;;;;;;2.01;100.00;95528.28;15290056;19;20018;-78
2023/01/17 09:42:42;;;;;;;2.30;0.50;;;;;;;2.07;100.00;95535.53;15289759;19;20014;-77
2023/01/17 09:48:17;;;;;;;1.63;0.65;;;;;;;2.32;100.00;95543.25;15310615;19;20021;-77
2023/01/17 09:53:45;;;;;;;1.38;0.60;;;;;;;2.49;100.00;95548.44;15345350;19;20014;-78
2023/01/17 09:59:23;;;;;;;0.65;0.40;;;;;;;2.50;100.00;95553.56;15283327;19;20021;-74
2023/01/17 10:05:15;;;;;;;2.45;0.60;;;;;;;2.54;100.00;95551.34;15281088;19;20039;-75
2023/01/17 10:10:44;;;;;;;1.45;0.60;;;;;;;2.55;100.00;95551.19;15280055;19;20426;-75
2023/01/17 10:16:28;;;;;;;2.55;0.40;;;;;;;2.53;100.00;95536.44;15278431;19;20684;-74
2023/01/17 10:22:18;;;;;;;0.73;0.40;;;;;;;2.68;100.00;95552.38;15286920;19;20034;-72
2023/01/17 10:27:48;;;;;;;0.30;0.30;;;;;;;2.62;100.00;95532.69;15280032;19;20022;-72
2023/01/17 10:33:21;;;;;;;0.70;0.60;;;;;;;2.58;100.00;95552.66;15280776;19;20398;-75
2023/01/17 10:38:48;;;;;;;0.60;0.50;;;;;;;2.61;100.00;95544.31;15283993;19;20275;-74
2023/01/17 10:44:20;;;;;;;1.00;0.40;;;;;;;2.59;100.00;95547.13;15285321;19;20487;-75
2023/01/17 10:49:55;;;;;;;0.75;0.52;;;;;;;2.59;100.00;95541.81;15275105;19;20022;-73
2023/01/17 10:55:30;;;;;;;1.08;0.70;;;;;;;2.56;100.00;95539.56;15272060;19;20347;-74
2023/01/17 11:01:08;;;;;;;0.95;0.47;;;;;;;2.56;100.00;95539.56;15274045;19;20018;-75
2023/01/17 11:06:37;;;;;;;0.80;0.50;;;;;;;2.55;100.00;95526.44;15280310;19;20067;-74
2023/01/17 11:12:24;;;;;;;0.73;0.50;;;;;;;2.58;100.00;95526.06;15282663;19;20371;-77
2023/01/17 11:17:54;;;;;;;0.40;0.40;;;;;;;2.58;100.00;95515.44;15280009;19;20248;-76
2023/01/17 11:23:26;;;;;;;0.80;0.60;;;;;;;2.60;100.00;95513.44;15268665;19;20043;-73
2023/01/17 11:28:51;;;;;;;0.43;0.40;;;;;;;2.62;100.00;95511.41;15277707;19;20024;-75
2023/01/17 11:34:24;;;;;;;1.10;0.60;;;;;;;2.66;100.00;95520.66;15278665;19;20362;-74
2023/01/17 11:39:52;;;;;;;0.65;0.47;;;;;;;2.70;100.00;95506.00;15287044;19;20082;-74
2023/01/17 11:45:32;;;;;;;1.15;0.63;;;;;;;2.70;100.00;95519.28;15276141;19;20434;-74
2023/01/17 11:50:59;;;;;;;0.73;0.50;;;;;;;2.73;100.00;95523.41;15281212;19;20022;-74
2023/01/17 11:56:42;;;;;;;2.33;0.50;;;;;;;2.70;100.00;95524.59;15278936;19;20376;-75
2023/01/17 12:02:45;;;;;;;0.70;0.50;;;;;;;2.72;100.00;95533.22;15277312;19;20082;-75
2023/01/17 12:08:21;;;;;;;1.30;0.50;;;;;;;2.67;100.00;95534.78;15277480;19;20042;-73
2023/01/17 12:14:04;;;;;;;0.73;0.50;;;;;;;2.61;100.00;95536.34;15277061;19;20019;-74
2023/01/17 12:19:42;;;;;;;0.63;0.50;;;;;;;2.59;100.00;95549.78;15277188;19;20218;-76
2023/01/17 12:25:32;;;;;;;0.40;0.40;;;;;;;2.51;100.00;95546.44;15262805;19;20159;-75
2023/01/17 12:31:13;;;;;;;0.30;0.30;;;;;;;2.54;100.00;95551.34;15276505;19;20023;-75
2023/01/17 12:36:50;;;;;;;0.60;0.60;;;;;;;2.55;100.00;95550.34;15276607;19;20011;-75
2023/01/17 12:42:20;;;;;;;0.60;0.60;;;;;;;2.53;100.00;95555.03;15275540;19;20041;-75
2023/01/17 12:47:53;;;;;;;0.93;0.30;;;;;;;2.53;100.00;95549.72;15276605;19;20387;-74
2023/01/17 12:53:25;;;;;;;1.02;0.50;;;;;;;2.54;100.00;95548.69;15273562;19;20025;-75
2023/01/17 12:58:55;;;;;;;0.90;0.60;;;;;;;2.58;100.00;95547.34;15268239;19;20010;-73
2023/01/17 13:04:29;;;;;;;0.88;0.60;;;;;;;2.58;100.00;95552.66;15271024;19;20025;-75
2023/01/17 13:10:11;;;;;;;1.25;0.70;;;;;;;2.60;100.00;95551.44;15272044;19;20468;-73
2023/01/17 13:15:42;;;;;;;1.63;1.02;;;;;;;2.59;100.00;95543.66;15264170;19;20066;-75
2023/01/17 13:21:35;;;;;;;0.70;0.60;;;;;;;2.61;100.00;95546.97;15271454;19;20030;-74
2023/01/17 13:27:14;;;;;;;0.85;0.60;;;;;;;2.62;100.00;95545.97;15273608;19;20018;-74
2023/01/17 13:33:07;;;;;;;1.23;0.80;;;;;;;2.69;100.00;95548.72;15266164;19;20026;-76
2023/01/17 13:38:53;;;;;;;;;;;;;;;2.66;100.00;95555.22;15277454;19;20082;-74
2023/01/17 13:44:23;;;;;;;0.40;0.40;;;;;;;2.71;100.00;95560.81;15287551;19;19923;-74
2023/01/17 13:49:55;;;;;;;0.95;0.60;;;;;;;2.73;100.00;95560.63;15272883;19;20014;-75
2023/01/17 13:55:53;;;;;;;1.30;0.90;;;;;;;2.75;100.00;95564.78;15263545;19;20082;-73
2023/01/17 14:02:01;;;;;;;1.20;0.70;;;;;;;2.74;100.00;95557.81;15264038;19;20096;-77
2023/01/17 14:07:28;;;;;;;1.13;0.90;;;;;;;2.76;100.00;95566.41;15272454;19;20417;-74
2023/01/17 14:12:57;;;;;;;1.15;0.80;;;;;;;2.78;100.00;95572.34;15267800;19;20598;-73
2023/01/17 14:18:35;;;;;;;1.75;1.20;;;;;;;2.75;100.00;95569.25;15274111;19;20078;-74
2023/01/17 14:24:24;;;;;;;0.80;0.80;;;;;;;2.76;100.00;95578.88;15281418;19;20640;-75
2023/01/17 14:30:03;;;;;;;1.35;1.00;;;;;;;2.80;100.00;95576.66;15285027;19;20019;-75
2023/01/17 14:35:31;;;;;;;0.70;0.70;;;;;;;2.80;100.00;95582.81;15277293;19;20046;-74
2023/01/17 14:40:59;;;;;;;1.73;0.82;;;;;;;2.79;100.00;95575.84;15285452;19;20380;-72
2023/01/17 14:46:34;;;;;;;1.20;1.10;;;;;;;2.78;100.00;95563.56;15276788;19;20029;-75
2023/01/17 14:52:01;;;;;;;2.35;1.83;;;;;;;2.73;100.00;95560.63;15282382;19;20389;-75
2023/01/17 14:57:36;;;;;;;1.27;0.80;;;;;;;2.68;100.00;95569.16;15280292;19;20126;-76
2023/01/17 15:03:04;;;;;;;1.08;0.75;;;;;;;2.67;100.00;95569.34;15277270;19;20371;-75
2023/01/17 15:08:32;;;;;;;0.77;0.77;;;;;;;2.63;100.00;95576.84;15276108;19;20022;-76
2023/01/17 15:13:59;;;;;;;1.23;1.00;;;;;;;2.60;100.00;95579.88;15276036;19;20023;-53
2023/01/17 15:19:28;;;;;;;2.58;1.10;;;;;;;2.60;100.00;95569.25;15279110;19;20026;-52
2023/01/17 15:24:54;;;;;;;3.25;1.00;;;;;;;2.58;100.00;95571.25;15279341;19;20025;-55
2023/01/17 15:30:24;;;;;;;1.83;0.82;;;;;;;2.56;100.00;95566.13;15273086;19;20029;-57
2023/01/17 15:36:01;;;;;;;1.75;0.88;;;;;;;2.50;100.00;95571.34;15271701;19;20050;-57
2023/01/17 15:41:29;;;;;;;0.95;0.70;;;;;;;2.45;100.00;95572.69;15275788;19;20078;-54
2023/01/17 15:46:55;;;;;;;1.98;1.08;;;;;;;2.36;100.00;95564.97;15275325;19;20043;-57
2023/01/17 15:52:25;;;;;;;13.52;6.40;;;;;;;2.27;100.00;95572.22;15279412;19;20027;-57
2023/01/17 15:57:51;;;;;;;2.40;1.27;;;;;;;2.14;100.00;95562.19;15278175;19;20033;-55
2023/01/17 16:03:23;;;;;;;7.90;4.30;;;;;;;2.01;100.00;95546.88;15275669;19;20078;-57
2023/01/17 16:09:00;;;;;;;2.72;1.50;;;;;;;1.88;100.00;95551.94;15267929;19;20023;-55
2023/01/17 16:14:31;;;;;;;1.60;1.00;;;;;;;1.74;100.00;95548.25;15273056;19;20089;-57
2023/01/17 16:20:21;;;;;;;1.47;0.63;;;;;;;1.55;100.00;95566.25;15274018;19;20026;-57
2023/01/17 16:25:49;;;;;;;0.80;0.80;;;;;;;1.27;100.00;95560.63;15270933;19;20093;-55
2023/01/17 16:31:14;;;;;;;1.25;0.80;;;;;;;1.08;100.00;95565.38;15269317;19;20806;-53
2023/01/17 16:36:38;;;;;;;1.05;0.90;;;;;;;0.94;100.00;95569.56;15273924;19;20945;-53
2023/01/17 16:42:06;;;;;;;1.20;1.10;;;;;;;0.80;100.00;95559.69;15267994;19;20026;-52
2023/01/17 16:47:31;;;;;;;1.98;1.13;;;;;;;0.63;100.00;95561.56;15270357;19;20078;-54
2023/01/17 16:52:56;;;;;;;2.53;1.10;;;;;;;0.52;100.00;95557.44;15274262;19;20035;-52
2023/01/17 16:58:24;;;;;;;1.30;1.20;;;;;;;0.48;100.00;95556.09;15273304;19;20043;-52
2023/01/17 17:03:55;;;;;;;1.70;1.02;;;;;;;0.36;100.00;95563.59;15272421;19;20481;-56
2023/01/17 17:09:21;;;;;;;2.20;1.60;;;;;;;0.29;100.00;95558.94;15269206;19;20036;-55
2023/01/17 17:14:48;;;;;;;5.00;3.30;;;;;;;0.15;100.00;95557.81;15262081;19;20475;-57
2023/01/17 17:20:16;;;;;;;3.63;2.20;;;;;;;0.06;100.00;95547.44;15266364;19;20511;-56
2023/01/17 17:25:35;;;;;;;1.83;1.30;;;;;;;0.04;100.00;95552.06;15270426;19;20022;-55
2023/01/17 17:31:10;;;;;;;1.60;1.40;;;;;;;-0.02;100.00;95557.00;15263279;19;20039;-55
2023/01/17 17:36:35;;;;;;;4.25;1.92;;;;;;;-0.06;100.00;95560.97;15268959;19;20018;-51
2023/01/17 17:42:00;;;;;;;3.92;2.08;;;;;;;-0.12;100.00;95568.78;15266014;19;20463;-54
2023/01/17 17:47:29;;;;;;;2.63;1.88;;;;;;;-0.20;100.00;95585.47;15257301;19;20112;-56
2023/01/17 17:52:53;;;;;;;3.33;2.05;;;;;;;-0.40;100.00;95588.41;15263937;19;20018;-55
2023/01/17 17:58:17;;;;;;;2.65;2.08;;;;;;;-0.71;100.00;95586.34;15276138;19;20432;-53
2023/01/17 18:03:45;;;;;;;2.28;2.00;;;;;;;-0.82;100.00;95607.78;15279262;19;20020;-53
2023/01/17 18:09:11;;;;;;;2.60;1.40;;;;;;;-0.82;100.00;95597.22;15289961;19;20023;-52
2023/01/17 18:14:36;;;;;;;1.50;1.40;;;;;;;-0.83;100.00;95600.84;15277707;19;20019;-53
2023/01/17 18:20:03;;;;;;;1.48;1.23;;;;;;;-0.82;100.00;95597.22;15274056;19;20030;-54
2023/01/17 18:25:28;;;;;;;2.83;1.50;;;;;;;-0.81;100.00;95604.16;15276955;19;20713;-53
2023/01/17 18:30:54;;;;;;;1.70;1.40;;;;;;;-0.80;100.00;95600.53;15279711;19;20018;-52
2023/01/17 18:36:22;;;;;;;2.65;1.70;;;;;;;-0.80;100.00;95595.25;15283257;19;20024;-52
2023/01/17 18:41:47;;;;;;;1.83;1.50;;;;;;;-0.77;100.00;95600.22;15277981;19;20022;-57
2023/01/17 18:47:12;;;;;;;2.60;1.80;;;;;;;-0.79;100.00;95610.94;15270392;19;20086;-55
2023/01/17 18:52:40;;;;;;;1.73;1.55;;;;;;;-0.76;100.00;95612.44;15278512;19;20031;-57
2023/01/17 18:58:04;;;;;;;2.67;1.75;;;;;;;-0.78;100.00;95615.25;15275660;19;20019;-57
2023/01/17 19:03:36;;;;;;;2.28;1.60;;;;;;;-0.79;100.00;95605.66;15278878;19;20082;-55
2023/01/17 19:09:04;;;;;;;2.45;1.55;;;;;;;-0.79;100.00;95605.66;15275267;19;20041;-55
2023/01/17 19:14:35;;;;;;;2.10;1.80;;;;;;;-0.80;100.00;95621.69;15276794;19;20023;-54
2023/01/17 19:20:00;;;;;;;3.40;1.75;;;;;;;-0.83;100.00;95627.28;15272824;19;20014;-53
2023/01/17 19:25:29;;;;;;;2.95;1.95;;;;;;;-0.88;100.00;95626.94;15273870;19;20490;-56
2023/01/17 19:31:03;;;;;;;3.55;2.00;;;;;;;-0.94;100.00;95649.53;15275244;19;20408;-52
2023/01/17 19:36:32;;;;;;;2.22;1.85;;;;;;;-0.99;100.00;95650.00;15279540;19;20024;-54
2023/01/17 19:41:59;;;;;;;3.50;2.78;;;;;;;-1.04;100.00;95662.88;15273118;19;20035;-54
2023/01/17 19:47:24;;;;;;;3.03;2.53;;;;;;;-1.12;100.00;95658.38;15265421;19;20014;-54
2023/01/17 19:52:49;;;;;;;3.90;3.17;;;;;;;-1.17;100.00;95675.66;15278732;19;20018;-56
2023/01/17 19:58:16;;;;;;;5.13;4.32;;;;;;;-1.27;100.00;95678.41;15270274;19;20028;-56
2023/01/17 20:03:41;;;;;;;2.85;2.55;;;;;;;-1.36;100.00;95681.97;15274019;19;20098;-54
2023/01/17 20:09:06;;;;;;;2.88;2.20;;;;;;;-1.37;100.00;95683.81;15274318;19;20617;-55
2023/01/17 20:14:34;;;;;;;3.28;1.92;;;;;;;-1.37;100.00;95681.16;15275188;19;20018;-57
2023/01/17 20:19:59;;;;;;;2.65;2.15;;;;;;;-1.46;100.00;95674.16;15275033;19;20014;-54
2023/01/17 20:25:24;;;;;;;3.55;2.25;;;;;;;-1.42;100.00;95664.94;15275050;19;20559;-55
2023/01/17 20:30:51;;;;;;;3.90;2.22;;;;;;;-1.34;100.00;95677.38;15268950;19;20787;-56
2023/01/17 20:36:18;;;;;;;6.22;3.22;;;;;;;-1.27;100.00;95679.25;15275691;19;20026;-51
2023/01/17 20:41:45;;;;;;;7.15;5.25;;;;;;;-1.20;100.00;95676.81;15271328;19;20014;-51
2023/01/17 20:47:12;;;;;;;7.38;4.68;;;;;;;-1.20;100.00;95683.91;15270284;19;20491;-51
2023/01/17 20:52:39;;;;;;;5.40;3.75;;;;;;;-1.28;100.00;95688.16;15271041;19;20876;-51
2023/01/17 20:58:04;;;;;;;4.43;3.60;;;;;;;-1.33;100.00;95685.13;15263893;19;20029;-53
2023/01/17 21:03:32;;;;;;;3.83;2.40;;;;;;;-1.45;100.00;95692.50;15269977;19;20042;-55
2023/01/17 21:08:58;;;;;;;3.17;2.30;;;;;;;-1.50;100.00;95693.94;15266317;19;20082;-54
2023/01/17 21:14:30;;;;;;;3.40;2.40;;;;;;;-1.53;100.00;95700.38;15265928;19;20426;-52
2023/01/17 21:19:59;;;;;;;3.53;2.53;;;;;;;-1.57;100.00;95709.56;15264155;19;20023;-54
2023/01/17 21:25:24;;;;;;;4.10;2.58;;;;;;;-1.59;100.00;95703.59;15271464;19;20388;-53
2023/01/17 21:30:49;;;;;;;3.35;2.50;;;;;;;-1.58;100.00;95699.97;15264016;19;20011;-53
2023/01/17 21:36:20;;;;;;;3.95;2.60;;;;;;;-1.59;100.00;95703.59;15280258;19;20780;-56
2023/01/17 21:41:48;;;;;;;3.50;2.40;;;;;;;-1.57;100.00;95705.09;15279083;19;20086;-53
2023/01/17 21:47:12;;;;;;;4.80;3.33;;;;;;;-1.56;100.00;95695.38;15282045;19;20086;-54
2023/01/17 21:52:40;;;;;;;4.35;3.33;;;;;;;-1.61;100.00;95700.28;15286604;19;20024;-49
2023/01/17 22:03:43;;;;;;;3.55;3.25;;;;;;;-1.69;100.00;95690.47;15278732;19;20018;-53
2023/01/17 22:09:11;;;;;;;5.70;3.35;;;;;;;-1.72;100.00;95704.00;15277161;19;20011;-50
2023/01/17 22:14:42;;;;;;;3.78;3.13;;;;;;;-1.79;100.00;95701.13;15281544;19;20023;-49
2023/01/17 22:20:10;;;;;;;3.85;3.38;;;;;;;-1.80;100.00;95688.06;15272965;19;20014;-54
2023/01/17 22:25:40;;;;;;;4.50;3.45;;;;;;;-1.82;100.00;95680.31;15275009;19;20082;-52
2023/01/17 22:31:10;;;;;;;4.05;3.47;;;;;;;-1.82;100.00;95677.69;15277266;19;20018;-54
2023/01/17 22:36:35;;;;;;;6.38;3.20;;;;;;;-1.84;100.00;95671.72;15273203;19;20427;-52
2023/01/17 22:42:02;;;;;;;6.13;3.20;;;;;;;-1.84;100.00;95668.28;15278244;19;20019;-51
2023/01/17 22:47:27;;;;;;;4.28;3.25;;;;;;;-1.89;100.00;95669.53;15271279;19;20058;-54
2023/01/17 22:52:52;;;;;;;4.60;2.80;;;;;;;-1.91;100.00;95660.94;15282573;19;20024;-52
2023/01/17 22:58:19;;;;;;;4.50;3.00;;;;;;;-1.93;100.00;95660.25;15270303;19;20042;-52
2023/01/17 23:03:44;;;;;;;3.20;2.90;;;;;;;-1.96;100.00;95650.03;15279220;19;20404;-51
2023/01/17 23:09:10;;;;;;;4.25;3.00;;;;;;;-2.02;100.00;95651.47;15268289;19;20019;-53
2023/01/17 23:20:22;;;;;;;3.75;3.38;;;;;;;-2.05;100.00;95651.75;15274078;19;20022;-52
2023/01/17 23:25:46;;;;;;;6.13;3.75;;;;;;;-2.06;100.00;95642.19;15275935;19;20078;-51
2023/01/17 23:31:14;;;;;;;3.75;3.20;;;;;;;-2.07;100.00;95629.97;15274759;19;20019;-53
2023/01/17 23:36:39;;;;;;;3.80;3.03;;;;;;;-2.06;100.00;95642.19;14763112;19;10001251;-50
2023/01/17 23:47:43;;;;;;;4.88;3.67;;;;;;;-2.13;100.00;95649.06;15268094;19;20025;-52
2023/01/17 23:53:08;;;;;;;4.85;3.83;;;;;;;-2.13;100.00;95656.13;15278748;19;20014;-49
2023/01/17 23:58:36;;;;;;;5.22;3.70;;;;;;;-2.16;100.00;95649.34;15269254;19;20022;-51
